Time;durP1;ratioP1;P1;durP2;ratioP2;P2;SDS_P1;SDS_P2;PMS_P1;PMS_P2;Temp;Humidity;BMP_temperature;BMP_pressure;BME280_temperature;BME280_humidity;BME280_pressure;Samples;Min_cycle;Max_cycle;Signal;HPM_P1;HPM_P2
2023/09/02 00:00:28;;;;;;;11.25;6.60;;;;;;;;;;2090387;28;20040;-61
2023/09/02 00:01:29;;;;;;;8.43;5.40;;;;;;;;;;2090827;28;20060;-62
2023/09/02 00:02:30;;;;;;;9.60;6.22;;;;;;;;;;2091122;28;20449;-62
2023/09/02 00:03:32;;;;;;;8.75;5.18;;;;;;;;;;2091049;28;20039;-62
2023/09/02 00:04:33;;;;;;;10.27;5.45;;;;;;;;;;2091471;28;20033;-62
2023/09/02 00:05:34;;;;;;;8.45;5.85;;;;;;;;;;2091547;28;20477;-62
2023/09/02 00:06:34;;;;;;;7.45;5.28;;;;;;;;;;2090815;28;20052;-62
2023/09/02 00:07:35;;;;;;;8.93;5.45;;;;;;;;;;2091063;28;20033;-62
2023/09/02 00:08:36;;;;;;;9.25;5.70;;;;;;;;;;2090778;28;20040;-62
2023/09/02 00:09:36;;;;;;;7.68;5.40;;;;;;;;;;2091200;28;20036;-62
2023/09/02 00:10:37;;;;;;;7.72;5.43;;;;;;;;;;2091200;28;20393;-62
2023/09/02 00:11:38;;;;;;;9.07;5.45;;;;;;;;;;2091448;28;20029;-62
2023/09/02 00:12:38;;;;;;;10.32;5.90;;;;;;;;;;2090767;28;20041;-62
2023/09/02 00:13:39;;;;;;;8.48;5.20;;;;;;;;;;2090729;28;20045;-62
2023/09/02 00:14:40;;;;;;;7.75;5.28;;;;;;;;;;2090654;28;20048;-62
2023/09/02 00:15:41;;;;;;;8.50;5.25;;;;;;;;;;2091230;28;20029;-62
2023/09/02 00:16:42;;;;;;;8.65;4.72;;;;;;;;;;2090757;28;20397;-62
2023/09/02 00:17:42;;;;;;;7.10;4.97;;;;;;;;;;2090746;28;20044;-62
2023/09/02 00:18:46;;;;;;;8.50;5.70;;;;;;;;;;2090870;28;20065;-61
2023/09/02 00:19:46;;;;;;;9.27;5.38;;;;;;;;;;2090934;28;20041;-61
2023/09/02 00:20:47;;;;;;;8.50;5.45;;;;;;;;;;2090565;28;20044;-61
2023/09/02 00:21:48;;;;;;;7.88;5.47;;;;;;;;;;2091460;28;20048;-61
2023/09/02 00:22:49;;;;;;;7.25;5.05;;;;;;;;;;2091087;28;20041;-61
2023/09/02 00:23:50;;;;;;;8.85;5.30;;;;;;;;;;2090950;28;20516;-63
2023/09/02 00:24:50;;;;;;;8.90;5.20;;;;;;;;;;2090926;28;20388;-63
2023/09/02 00:25:51;;;;;;;6.80;5.43;;;;;;;;;;2091526;28;20021;-61
2023/09/02 00:26:52;;;;;;;6.70;5.00;;;;;;;;;;2090674;28;20040;-63
2023/09/02 00:27:52;;;;;;;9.05;5.78;;;;;;;;;;2090115;28;20037;-61
2023/09/02 00:28:53;;;;;;;7.80;5.13;;;;;;;;;;2090551;28;20040;-60
2023/09/02 00:29:54;;;;;;;7.30;4.93;;;;;;;;;;2090557;28;20032;-61
2023/09/02 00:30:55;;;;;;;10.13;5.57;;;;;;;;;;2090213;28;20039;-61
2023/09/02 00:31:56;;;;;;;9.38;5.18;;;;;;;;;;2082320;28;20484;-61
2023/09/02 00:32:56;;;;;;;8.63;6.20;;;;;;;;;;2081772;28;20045;-61
2023/09/02 00:33:57;;;;;;;7.28;5.78;;;;;;;;;;2090695;28;20040;-62
2023/09/02 00:34:58;;;;;;;10.27;5.88;;;;;;;;;;2091176;28;20473;-61
2023/09/02 00:35:59;;;;;;;9.25;5.93;;;;;;;;;;2090623;28;20040;-61
2023/09/02 00:36:59;;;;;;;8.98;5.93;;;;;;;;;;2090577;28;20045;-61
2023/09/02 00:38:00;;;;;;;8.25;5.60;;;;;;;;;;2089981;28;20045;-61
2023/09/02 00:39:01;;;;;;;10.95;6.40;;;;;;;;;;2090578;28;20037;-62
2023/09/02 00:40:02;;;;;;;11.57;6.45;;;;;;;;;;2090597;28;20554;-61
2023/09/02 00:41:03;;;;;;;10.40;6.55;;;;;;;;;;2090840;28;20489;-62
2023/09/02 00:42:05;;;;;;;8.02;6.47;;;;;;;;;;2082360;28;20029;-61
2023/09/02 00:43:06;;;;;;;10.77;6.60;;;;;;;;;;2074258;28;20053;-61
2023/09/02 00:44:06;;;;;;;9.25;5.78;;;;;;;;;;2089660;28;20517;-62
2023/09/02 00:45:07;;;;;;;8.70;6.63;;;;;;;;;;2090808;28;20029;-63
2023/09/02 00:46:08;;;;;;;10.52;6.15;;;;;;;;;;2090585;28;20094;-62
2023/09/02 00:47:09;;;;;;;9.52;6.45;;;;;;;;;;2090617;28;20041;-63
2023/09/02 00:48:09;;;;;;;8.15;6.20;;;;;;;;;;2090812;28;20427;-61
2023/09/02 00:49:10;;;;;;;8.65;6.25;;;;;;;;;;2090683;28;20053;-62
2023/09/02 00:50:11;;;;;;;10.80;6.82;;;;;;;;;;2090729;28;20048;-62
2023/09/02 00:51:11;;;;;;;11.30;6.50;;;;;;;;;;2090401;28;20056;-61
2023/09/02 00:52:12;;;;;;;9.57;6.47;;;;;;;;;;2090650;28;20041;-61
2023/09/02 00:53:13;;;;;;;8.88;6.60;;;;;;;;;;2090526;28;20076;-62
2023/09/02 00:54:13;;;;;;;8.75;6.90;;;;;;;;;;2089400;28;20406;-62
2023/09/02 00:55:14;;;;;;;9.27;6.95;;;;;;;;;;2090053;28;20103;-63
2023/09/02 00:56:15;;;;;;;8.90;6.57;;;;;;;;;;2090091;28;20041;-61
2023/09/02 00:57:16;;;;;;;11.18;5.78;;;;;;;;;;2089798;28;20079;-62
2023/09/02 00:58:17;;;;;;;10.85;7.00;;;;;;;;;;2081057;28;20520;-62
2023/09/02 00:59:17;;;;;;;10.18;6.72;;;;;;;;;;2073605;28;20070;-62
2023/09/02 01:00:18;;;;;;;9.90;6.70;;;;;;;;;;2082286;28;20125;-63
2023/09/02 01:01:19;;;;;;;11.52;6.43;;;;;;;;;;2090280;28;20037;-61
2023/09/02 01:02:20;;;;;;;8.63;6.60;;;;;;;;;;2089744;28;20049;-62
2023/09/02 01:03:21;;;;;;;11.38;6.63;;;;;;;;;;2090196;28;20503;-62
2023/09/02 01:04:22;;;;;;;10.23;6.85;;;;;;;;;;2090386;28;20040;-62
2023/09/02 01:05:22;;;;;;;10.27;6.07;;;;;;;;;;2090300;28;20489;-61
2023/09/02 01:06:23;;;;;;;9.13;6.63;;;;;;;;;;2089754;28;20044;-63
2023/09/02 01:07:24;;;;;;;9.55;6.30;;;;;;;;;;2090034;28;20017;-63
2023/09/02 01:08:25;;;;;;;8.77;6.40;;;;;;;;;;2089986;28;20397;-61
2023/09/02 01:09:26;;;;;;;11.02;6.75;;;;;;;;;;2073558;28;20034;-63
2023/09/02 01:10:26;;;;;;;13.20;7.03;;;;;;;;;;2081765;28;20061;-63
2023/09/02 01:11:27;;;;;;;9.73;7.07;;;;;;;;;;2090549;28;20045;-63
2023/09/02 01:12:28;;;;;;;9.15;6.22;;;;;;;;;;2090465;28;20052;-62
2023/09/02 01:13:29;;;;;;;9.48;6.32;;;;;;;;;;2089795;28;20044;-62
2023/09/02 01:14:29;;;;;;;13.93;6.63;;;;;;;;;;2081784;28;20619;-62
2023/09/02 01:15:30;;;;;;;11.25;7.30;;;;;;;;;;2090342;28;20397;-63
2023/09/02 01:16:34;;;;;;;9.15;6.47;;;;;;;;;;2090528;28;20040;-62
2023/09/02 01:17:35;;;;;;;10.07;6.57;;;;;;;;;;2090433;28;20055;-62
2023/09/02 01:18:36;;;;;;;9.23;6.88;;;;;;;;;;2090546;28;20071;-61
2023/09/02 01:19:37;;;;;;;8.80;6.38;;;;;;;;;;2090399;28;20048;-61
2023/09/02 01:20:58;;;;;;;9.70;6.22;;;;;;;;;;2090424;28;20040;-62
2023/09/02 01:22:02;;;;;;;10.55;6.38;;;;;;;;;;2086447;28;20032;-62
2023/09/02 01:23:13;;;;;;;10.70;7.57;;;;;;;;;;2089856;28;20037;-62
2023/09/02 01:24:26;;;;;;;10.48;7.22;;;;;;;;;;2089648;28;20041;-61
2023/09/02 01:25:45;;;;;;;11.60;6.60;;;;;;;;;;2090202;28;20477;-62
2023/09/02 01:26:46;;;;;;;9.43;6.60;;;;;;;;;;2090509;28;20388;-62
2023/09/02 01:27:48;;;;;;;11.75;7.20;;;;;;;;;;2090753;28;20066;-61
2023/09/02 01:28:50;;;;;;;9.73;7.32;;;;;;;;;;2089854;28;20032;-62
2023/09/02 01:29:58;;;;;;;9.93;6.32;;;;;;;;;;2081973;28;20042;-61
2023/09/02 01:30:59;;;;;;;10.57;6.63;;;;;;;;;;2074646;28;20088;-62
2023/09/02 01:32:00;;;;;;;11.73;6.72;;;;;;;;;;2081979;28;20098;-61
2023/09/02 01:33:01;;;;;;;9.25;6.80;;;;;;;;;;2089788;28;20047;-62
2023/09/02 01:34:01;;;;;;;9.82;7.10;;;;;;;;;;2081820;28;20092;-62
2023/09/02 01:35:04;;;;;;;10.43;7.22;;;;;;;;;;2090018;28;20045;-63
2023/09/02 01:36:05;;;;;;;12.80;7.45;;;;;;;;;;2089913;28;20045;-62
2023/09/02 01:37:06;;;;;;;9.38;7.10;;;;;;;;;;2081710;28;20116;-62
2023/09/02 01:38:07;;;;;;;9.48;6.88;;;;;;;;;;2073916;28;20046;-61
2023/09/02 01:39:09;;;;;;;10.23;6.93;;;;;;;;;;2089640;28;20057;-62
2023/09/02 01:40:10;;;;;;;9.43;7.05;;;;;;;;;;2081633;28;20514;-63
2023/09/02 01:41:11;;;;;;;11.13;7.47;;;;;;;;;;2081988;28;20081;-63
2023/09/02 01:42:12;;;;;;;9.80;7.22;;;;;;;;;;2082221;28;20049;-63
2023/09/02 01:43:14;;;;;;;9.50;7.50;;;;;;;;;;2081913;28;20049;-63
2023/09/02 01:44:15;;;;;;;10.20;6.70;;;;;;;;;;2089582;28;20052;-62
2023/09/02 01:45:16;;;;;;;13.00;7.10;;;;;;;;;;2081639;28;20465;-63
2023/09/02 01:46:18;;;;;;;10.70;6.68;;;;;;;;;;2090005;28;20045;-63
2023/09/02 01:47:19;;;;;;;11.63;7.25;;;;;;;;;;2089723;28;20053;-63
2023/09/02 01:48:20;;;;;;;9.73;6.70;;;;;;;;;;2089360;28;20049;-63
2023/09/02 01:49:21;;;;;;;13.45;7.55;;;;;;;;;;2089416;28;20049;-63
2023/09/02 01:50:22;;;;;;;12.00;7.68;;;;;;;;;;2090058;28;20052;-62
2023/09/02 01:51:23;;;;;;;10.75;7.28;;;;;;;;;;2089167;28;20056;-62
2023/09/02 01:52:25;;;;;;;12.65;6.70;;;;;;;;;;2089365;28;20057;-62
2023/09/02 01:53:26;;;;;;;11.05;7.13;;;;;;;;;;2089020;28;20413;-62
2023/09/02 01:54:27;;;;;;;10.88;7.28;;;;;;;;;;2089274;28;20065;-62
2023/09/02 01:55:27;;;;;;;10.25;7.22;;;;;;;;;;2081425;28;20049;-62
2023/09/02 01:56:29;;;;;;;9.80;6.90;;;;;;;;;;2073670;28;20053;-62
2023/09/02 01:57:29;;;;;;;11.93;6.75;;;;;;;;;;2081400;28;20539;-62
2023/09/02 01:58:30;;;;;;;12.63;7.13;;;;;;;;;;2081431;28;20052;-62
2023/09/02 01:59:31;;;;;;;11.48;7.13;;;;;;;;;;2073485;28;20066;-63
2023/09/02 02:00:32;;;;;;;12.25;7.15;;;;;;;;;;2081139;28;20041;-62
2023/09/02 02:01:34;;;;;;;10.27;7.20;;;;;;;;;;2089568;28;20033;-62
2023/09/02 02:02:38;;;;;;;11.07;7.10;;;;;;;;;;2081727;28;20021;-63
2023/09/02 02:03:41;;;;;;;9.65;7.10;;;;;;;;;;2089788;28;20033;-63
2023/09/02 02:04:42;;;;;;;11.88;7.50;;;;;;;;;;2089104;28;20046;-62
2023/09/02 02:05:45;;;;;;;10.18;7.70;;;;;;;;;;2081605;28;20033;-62
2023/09/02 02:06:46;;;;;;;11.70;7.53;;;;;;;;;;2081690;28;20524;-62
2023/09/02 02:07:48;;;;;;;9.63;7.28;;;;;;;;;;2089854;28;20045;-62
2023/09/02 02:08:55;;;;;;;11.48;7.00;;;;;;;;;;2089834;28;20037;-63
2023/09/02 02:09:57;;;;;;;10.68;7.30;;;;;;;;;;2089331;28;20060;-61
2023/09/02 02:10:58;;;;;;;10.70;7.10;;;;;;;;;;2089963;28;20516;-62
2023/09/02 02:11:59;;;;;;;10.57;7.82;;;;;;;;;;2090168;28;20040;-62
2023/09/02 02:13:02;;;;;;;11.05;6.90;;;;;;;;;;2089214;28;20543;-62
2023/09/02 02:14:03;;;;;;;9.13;6.43;;;;;;;;;;2081712;28;20040;-62
2023/09/02 02:15:04;;;;;;;9.55;6.65;;;;;;;;;;2090019;28;20126;-62
2023/09/02 02:16:04;;;;;;;12.77;7.97;;;;;;;;;;2089652;28;20033;-62
2023/09/02 02:17:05;;;;;;;9.35;7.35;;;;;;;;;;2081293;28;20048;-62
2023/09/02 02:18:06;;;;;;;9.38;6.80;;;;;;;;;;2081345;28;20045;-62
2023/09/02 02:19:07;;;;;;;11.80;7.38;;;;;;;;;;2089777;28;20037;-62
2023/09/02 02:20:10;;;;;;;9.13;7.15;;;;;;;;;;2090322;28;20073;-62
2023/09/02 02:21:11;;;;;;;10.00;7.40;;;;;;;;;;2090164;28;20037;-62
2023/09/02 02:22:12;;;;;;;9.77;7.07;;;;;;;;;;2090149;28;20389;-62
2023/09/02 02:23:12;;;;;;;10.27;7.28;;;;;;;;;;2090082;28;20052;-62
2023/09/02 02:24:15;;;;;;;9.27;7.07;;;;;;;;;;2088716;28;20067;-62
2023/09/02 02:25:15;;;;;;;12.13;7.00;;;;;;;;;;2081323;28;20041;-62
2023/09/02 02:26:16;;;;;;;10.15;7.30;;;;;;;;;;2089621;28;20037;-62
2023/09/02 02:27:17;;;;;;;11.95;7.93;;;;;;;;;;2090107;28;20036;-62
2023/09/02 02:28:17;;;;;;;8.77;6.97;;;;;;;;;;2090149;28;20053;-62
2023/09/02 02:29:18;;;;;;;11.13;7.05;;;;;;;;;;2090075;28;20037;-62
2023/09/02 02:30:19;;;;;;;15.80;7.72;;;;;;;;;;2090119;28;20128;-62
2023/09/02 02:31:20;;;;;;;10.40;6.75;;;;;;;;;;2090245;28;20041;-62
2023/09/02 02:32:21;;;;;;;12.20;7.30;;;;;;;;;;2090108;28;20045;-62
2023/09/02 02:33:22;;;;;;;10.45;7.00;;;;;;;;;;2090277;28;20033;-62
2023/09/02 02:34:23;;;;;;;10.70;7.10;;;;;;;;;;2089706;28;20072;-62
2023/09/02 02:35:28;;;;;;;12.23;7.35;;;;;;;;;;2090058;28;20053;-62
2023/09/02 02:36:29;;;;;;;11.45;7.32;;;;;;;;;;2089371;28;20037;-62
2023/09/02 02:37:29;;;;;;;11.48;7.88;;;;;;;;;;2081300;28;20041;-62
2023/09/02 02:38:30;;;;;;;8.85;7.20;;;;;;;;;;2089368;28;20064;-62
2023/09/02 02:39:31;;;;;;;11.05;7.40;;;;;;;;;;2080976;28;20037;-62
2023/09/02 02:40:32;;;;;;;11.15;7.22;;;;;;;;;;2089523;28;20047;-62
2023/09/02 02:41:33;;;;;;;10.90;7.00;;;;;;;;;;2090063;28;20058;-62
2023/09/02 02:42:34;;;;;;;13.32;6.90;;;;;;;;;;2089274;28;20500;-62
2023/09/02 02:43:35;;;;;;;10.30;6.50;;;;;;;;;;2081204;28;20042;-62
2023/09/02 02:44:35;;;;;;;8.15;6.60;;;;;;;;;;2089214;28;20036;-62
2023/09/02 02:45:36;;;;;;;8.80;6.35;;;;;;;;;;2089740;28;20416;-62
2023/09/02 02:46:37;;;;;;;10.18;7.22;;;;;;;;;;2090153;28;20041;-62
2023/09/02 02:47:38;;;;;;;9.88;7.22;;;;;;;;;;2089852;28;20492;-62
2023/09/02 02:48:38;;;;;;;11.50;7.57;;;;;;;;;;2090023;28;20037;-62
2023/09/02 02:49:39;;;;;;;11.13;7.13;;;;;;;;;;2088632;28;20041;-62
2023/09/02 02:50:40;;;;;;;8.70;6.63;;;;;;;;;;2089301;28;20096;-62
2023/09/02 02:51:41;;;;;;;9.43;6.57;;;;;;;;;;2090056;28;20065;-62
2023/09/02 02:52:41;;;;;;;11.43;7.70;;;;;;;;;;2090344;28;20052;-62
2023/09/02 02:53:42;;;;;;;10.98;7.35;;;;;;;;;;2089697;28;20045;-62
2023/09/02 02:54:43;;;;;;;11.07;7.50;;;;;;;;;;2089462;28;20538;-62
2023/09/02 02:55:43;;;;;;;9.90;7.00;;;;;;;;;;2089507;28;20040;-62
2023/09/02 02:56:45;;;;;;;12.52;7.68;;;;;;;;;;2089745;28;20473;-62
2023/09/02 02:57:45;;;;;;;11.38;7.28;;;;;;;;;;2089093;28;20572;-62
2023/09/02 02:58:47;;;;;;;10.10;7.05;;;;;;;;;;2088981;28;20052;-62
2023/09/02 02:59:50;;;;;;;12.00;7.63;;;;;;;;;;2089541;28;20029;-62
2023/09/02 03:00:56;;;;;;;10.40;6.85;;;;;;;;;;2097533;28;20040;-62
2023/09/02 03:01:58;;;;;;;9.95;7.13;;;;;;;;;;2089031;28;20493;-62
2023/09/02 03:03:03;;;;;;;11.75;6.97;;;;;;;;;;2081546;28;20048;-62
2023/09/02 03:04:08;;;;;;;12.02;7.30;;;;;;;;;;2080702;28;20041;-62
2023/09/02 03:05:09;;;;;;;10.15;7.97;;;;;;;;;;2089528;28;20045;-62
2023/09/02 03:06:14;;;;;;;11.88;7.28;;;;;;;;;;2098909;28;20044;-62
2023/09/02 03:07:15;;;;;;;9.82;7.40;;;;;;;;;;2091508;28;20041;-62
2023/09/02 03:08:17;;;;;;;10.35;7.45;;;;;;;;;;2091011;28;20044;-62
2023/09/02 03:09:19;;;;;;;9.65;6.90;;;;;;;;;;2090868;28;20037;-63
2023/09/02 03:10:22;;;;;;;10.82;7.88;;;;;;;;;;2082576;28;20053;-62
2023/09/02 03:11:23;;;;;;;10.77;7.35;;;;;;;;;;2091210;28;20052;-62
2023/09/02 03:12:24;;;;;;;9.25;7.05;;;;;;;;;;2090652;28;20102;-62
2023/09/02 03:13:25;;;;;;;10.70;7.43;;;;;;;;;;2090898;28;20432;-62
2023/09/02 03:14:26;;;;;;;10.05;7.07;;;;;;;;;;2090808;28;20041;-62
2023/09/02 03:15:27;;;;;;;9.23;7.03;;;;;;;;;;2090441;28;20057;-62
2023/09/02 03:16:28;;;;;;;10.45;6.88;;;;;;;;;;2091067;28;20056;-62
2023/09/02 03:17:28;;;;;;;10.63;6.75;;;;;;;;;;2082409;28;20140;-62
2023/09/02 03:18:29;;;;;;;10.18;7.40;;;;;;;;;;2090774;28;20048;-62
2023/09/02 03:19:31;;;;;;;9.77;6.78;;;;;;;;;;2083039;28;20464;-61
2023/09/02 03:20:32;;;;;;;11.55;7.18;;;;;;;;;;2082698;28;20052;-62
2023/09/02 03:21:33;;;;;;;10.07;6.72;;;;;;;;;;2090853;28;20025;-62
2023/09/02 03:22:34;;;;;;;9.80;7.35;;;;;;;;;;2090657;28;20072;-62
2023/09/02 03:23:35;;;;;;;9.18;7.13;;;;;;;;;;2082872;28;20072;-62
2023/09/02 03:24:35;;;;;;;9.70;7.60;;;;;;;;;;2090848;28;20474;-62
2023/09/02 03:25:37;;;;;;;10.15;7.80;;;;;;;;;;2099086;28;20036;-62
2023/09/02 03:26:40;;;;;;;9.32;7.43;;;;;;;;;;2090734;28;20040;-62
2023/09/02 03:27:40;;;;;;;11.45;7.47;;;;;;;;;;2090598;28;20420;-62
2023/09/02 03:28:41;;;;;;;11.30;7.38;;;;;;;;;;2091123;28;20033;-62
2023/09/02 03:29:42;;;;;;;10.25;7.15;;;;;;;;;;2091407;28;20041;-62
2023/09/02 03:30:43;;;;;;;9.75;7.30;;;;;;;;;;2090726;28;20492;-62
2023/09/02 03:31:43;;;;;;;10.18;7.30;;;;;;;;;;2082590;28;20029;-61
2023/09/02 03:32:46;;;;;;;10.82;8.02;;;;;;;;;;2082629;28;20044;-61
2023/09/02 03:33:47;;;;;;;15.07;7.65;;;;;;;;;;2082414;28;20045;-62
2023/09/02 03:34:50;;;;;;;10.38;7.10;;;;;;;;;;2090225;28;20052;-61
2023/09/02 03:35:51;;;;;;;10.85;7.10;;;;;;;;;;2082989;28;20044;-62
2023/09/02 03:36:51;;;;;;;12.25;7.68;;;;;;;;;;2082825;28;20033;-62
2023/09/02 03:37:52;;;;;;;11.77;6.95;;;;;;;;;;2090571;28;20045;-63
2023/09/02 03:38:53;;;;;;;12.68;7.63;;;;;;;;;;2090704;28;20061;-62
2023/09/02 03:39:54;;;;;;;12.55;8.35;;;;;;;;;;2090570;28;20143;-62
2023/09/02 03:40:54;;;;;;;10.88;7.18;;;;;;;;;;2098716;28;20044;-62
2023/09/02 03:41:55;;;;;;;10.73;7.32;;;;;;;;;;2091256;28;20492;-62
2023/09/02 03:42:56;;;;;;;11.98;7.75;;;;;;;;;;2091243;28;20045;-62
2023/09/02 03:43:56;;;;;;;10.52;7.82;;;;;;;;;;2090976;28;20041;-62
2023/09/02 03:44:58;;;;;;;12.77;7.55;;;;;;;;;;2091261;28;20061;-62
2023/09/02 03:45:58;;;;;;;10.57;7.55;;;;;;;;;;2090915;28;20052;-62
2023/09/02 03:47:00;;;;;;;9.98;7.18;;;;;;;;;;2090873;28;20044;-62
2023/09/02 03:48:01;;;;;;;11.18;7.18;;;;;;;;;;2090732;28;20052;-62
2023/09/02 03:49:02;;;;;;;10.32;7.57;;;;;;;;;;2090533;28;20082;-62
2023/09/02 03:50:03;;;;;;;11.60;7.68;;;;;;;;;;2082480;28;20505;-62
2023/09/02 03:51:05;;;;;;;10.93;7.25;;;;;;;;;;2081716;28;20042;-62
2023/09/02 03:52:09;;;;;;;14.00;7.38;;;;;;;;;;2082847;28;20049;-62
2023/09/02 03:53:10;;;;;;;11.25;7.68;;;;;;;;;;2082697;28;20460;-62
2023/09/02 03:54:11;;;;;;;9.35;5.85;;;;;;;;;;2082691;28;20065;-62
2023/09/02 03:55:12;;;;;;;9.85;7.50;;;;;;;;;;2082029;28;20042;-63
2023/09/02 03:56:13;;;;;;;9.75;6.80;;;;;;;;;;2091038;28;20051;-61
2023/09/02 03:57:14;;;;;;;10.55;7.45;;;;;;;;;;2090594;28;20071;-62
2023/09/02 03:58:15;;;;;;;10.70;6.72;;;;;;;;;;2090345;28;20044;-63
2023/09/02 03:59:15;;;;;;;11.07;7.07;;;;;;;;;;2091592;28;20041;-63
2023/09/02 04:00:17;;;;;;;10.88;7.75;;;;;;;;;;2090228;28;20040;-62
2023/09/02 04:01:17;;;;;;;12.32;7.68;;;;;;;;;;2090395;28;20048;-63
2023/09/02 04:02:19;;;;;;;10.93;7.40;;;;;;;;;;2091071;28;20034;-63
2023/09/02 04:03:21;;;;;;;8.73;7.07;;;;;;;;;;2090823;28;20053;-63
2023/09/02 04:04:21;;;;;;;10.13;7.53;;;;;;;;;;2090503;28;20037;-62
2023/09/02 04:05:22;;;;;;;11.02;7.70;;;;;;;;;;2090424;28;20428;-62
2023/09/02 04:06:23;;;;;;;13.63;7.55;;;;;;;;;;2090522;28;20040;-63
2023/09/02 04:07:24;;;;;;;11.48;7.75;;;;;;;;;;2090490;28;20025;-63
2023/09/02 04:08:27;;;;;;;9.52;7.38;;;;;;;;;;2090236;28;20303;-63
2023/09/02 04:09:28;;;;;;;10.50;6.75;;;;;;;;;;2090264;28;20424;-62
2023/09/02 04:10:28;;;;;;;9.55;6.90;;;;;;;;;;2090530;28;20129;-62
2023/09/02 04:11:30;;;;;;;9.93;7.65;;;;;;;;;;2082141;28;20072;-62
2023/09/02 04:12:32;;;;;;;11.00;7.55;;;;;;;;;;2090780;28;20045;-62
2023/09/02 04:13:33;;;;;;;13.27;7.68;;;;;;;;;;2090515;28;20041;-61
2023/09/02 04:14:37;;;;;;;11.10;7.72;;;;;;;;;;2082618;28;20378;-62
2023/09/02 04:15:38;;;;;;;11.23;7.43;;;;;;;;;;2090168;28;20045;-63
2023/09/02 04:16:39;;;;;;;11.43;6.60;;;;;;;;;;2089679;28;20036;-63
2023/09/02 04:17:40;;;;;;;12.88;8.18;;;;;;;;;;2090408;28;20037;-63
2023/09/02 04:18:41;;;;;;;11.57;7.20;;;;;;;;;;2089815;28;20051;-62
2023/09/02 04:19:42;;;;;;;10.55;7.63;;;;;;;;;;2090424;28;20453;-63
2023/09/02 04:20:43;;;;;;;9.18;7.25;;;;;;;;;;2090084;28;20044;-63
2023/09/02 04:21:44;;;;;;;11.77;7.82;;;;;;;;;;2090380;28;20378;-62
2023/09/02 04:22:45;;;;;;;11.55;7.10;;;;;;;;;;2090017;28;20128;-63
2023/09/02 04:23:46;;;;;;;9.50;6.70;;;;;;;;;;2082183;28;20044;-62
2023/09/02 04:24:48;;;;;;;11.60;7.13;;;;;;;;;;2090368;28;20029;-62
2023/09/02 04:25:49;;;;;;;12.05;6.85;;;;;;;;;;2090012;28;20107;-63
2023/09/02 04:26:51;;;;;;;7.85;6.13;;;;;;;;;;2090010;28;20032;-62
2023/09/02 04:27:52;;;;;;;9.13;6.55;;;;;;;;;;2082116;28;20026;-60
2023/09/02 04:28:55;;;;;;;10.23;6.95;;;;;;;;;;2090365;28;20025;-63
2023/09/02 04:29:56;;;;;;;10.38;6.35;;;;;;;;;;2090249;28;20045;-63
2023/09/02 04:30:57;;;;;;;8.10;6.43;;;;;;;;;;2081554;28;20049;-62
2023/09/02 04:31:59;;;;;;;8.88;6.55;;;;;;;;;;2090303;28;20041;-62
2023/09/02 04:33:01;;;;;;;9.23;7.32;;;;;;;;;;2082124;28;20056;-62
2023/09/02 04:34:02;;;;;;;10.13;7.30;;;;;;;;;;2090296;28;20044;-63
2023/09/02 04:35:04;;;;;;;10.82;7.07;;;;;;;;;;2090698;28;20061;-63
2023/09/02 04:36:05;;;;;;;9.63;6.22;;;;;;;;;;2081991;28;20045;-62
2023/09/02 04:37:10;;;;;;;10.75;7.13;;;;;;;;;;2082396;28;20538;-62
2023/09/02 04:38:11;;;;;;;8.48;6.30;;;;;;;;;;2090224;28;20128;-63
2023/09/02 04:39:13;;;;;;;7.90;6.18;;;;;;;;;;2090559;28;20071;-63
2023/09/02 04:40:14;;;;;;;11.38;6.78;;;;;;;;;;2089919;28;20052;-62
2023/09/02 04:41:16;;;;;;;11.50;7.03;;;;;;;;;;2090264;28;20393;-62
2023/09/02 04:42:19;;;;;;;10.63;6.95;;;;;;;;;;2082492;28;20046;-62
2023/09/02 04:43:22;;;;;;;10.43;6.57;;;;;;;;;;2082110;28;20068;-62
2023/09/02 04:44:25;;;;;;;12.93;6.75;;;;;;;;;;2082148;28;20433;-63
2023/09/02 04:45:25;;;;;;;10.70;6.43;;;;;;;;;;2089951;28;20049;-62
2023/09/02 04:46:26;;;;;;;8.15;6.38;;;;;;;;;;2082213;28;20069;-63
2023/09/02 04:47:27;;;;;;;12.55;5.85;;;;;;;;;;2082360;28;20046;-63
2023/09/02 04:48:28;;;;;;;10.45;6.05;;;;;;;;;;2090195;28;20056;-63
2023/09/02 04:49:29;;;;;;;10.93;6.20;;;;;;;;;;2090075;28;20040;-63
2023/09/02 04:50:32;;;;;;;12.40;6.78;;;;;;;;;;2082517;28;20053;-63
2023/09/02 04:51:33;;;;;;;7.47;5.60;;;;;;;;;;2081932;28;20045;-63
2023/09/02 04:52:35;;;;;;;8.45;5.45;;;;;;;;;;2089565;28;20074;-61
2023/09/02 04:53:36;;;;;;;9.07;5.95;;;;;;;;;;2090073;28;20033;-62
2023/09/02 04:54:37;;;;;;;8.80;6.45;;;;;;;;;;2090215;28;20029;-61
2023/09/02 04:55:40;;;;;;;8.35;5.80;;;;;;;;;;2090149;28;20432;-61
2023/09/02 04:56:43;;;;;;;8.68;5.43;;;;;;;;;;2090296;28;20033;-63
2023/09/02 04:57:45;;;;;;;9.77;5.85;;;;;;;;;;2090192;28;20132;-63
2023/09/02 04:58:46;;;;;;;8.15;5.57;;;;;;;;;;2081653;28;20053;-61
2023/09/02 04:59:49;;;;;;;7.07;5.07;;;;;;;;;;2082408;28;20037;-62
2023/09/02 05:00:50;;;;;;;8.05;5.72;;;;;;;;;;2089662;28;20049;-61
2023/09/02 05:01:50;;;;;;;7.88;5.95;;;;;;;;;;2090337;28;20474;-61
2023/09/02 05:02:51;;;;;;;6.88;4.97;;;;;;;;;;2090765;28;20028;-61
2023/09/02 05:03:52;;;;;;;8.23;5.53;;;;;;;;;;2090063;28;20531;-63
2023/09/02 05:04:53;;;;;;;7.25;5.43;;;;;;;;;;2090314;28;20033;-63
2023/09/02 05:05:54;;;;;;;7.78;5.50;;;;;;;;;;2081886;28;20029;-62
2023/09/02 05:06:54;;;;;;;7.60;5.45;;;;;;;;;;2089370;28;20112;-61
2023/09/02 05:07:56;;;;;;;6.97;4.97;;;;;;;;;;2090757;28;20032;-62
2023/09/02 05:08:57;;;;;;;10.30;5.72;;;;;;;;;;2089985;28;20033;-61
2023/09/02 05:10:03;;;;;;;8.10;5.10;;;;;;;;;;2090016;28;20036;-63
2023/09/02 05:11:07;;;;;;;7.35;4.55;;;;;;;;;;2090026;28;20051;-61
2023/09/02 05:12:08;;;;;;;5.65;4.22;;;;;;;;;;2082028;28;20038;-62
2023/09/02 05:13:08;;;;;;;9.13;4.90;;;;;;;;;;2090006;28;20033;-63
2023/09/02 05:14:09;;;;;;;10.63;5.10;;;;;;;;;;2091588;28;20053;-63
2023/09/02 05:15:10;;;;;;;8.10;4.47;;;;;;;;;;2089160;28;20386;-61
2023/09/02 05:16:12;;;;;;;7.63;4.57;;;;;;;;;;2089741;28;20068;-62
2023/09/02 05:17:12;;;;;;;6.72;4.57;;;;;;;;;;2081887;28;20045;-63
2023/09/02 05:18:13;;;;;;;6.43;4.43;;;;;;;;;;2090034;28;20037;-61
2023/09/02 05:19:14;;;;;;;6.65;4.18;;;;;;;;;;2089261;28;20045;-62
2023/09/02 05:20:15;;;;;;;5.80;4.50;;;;;;;;;;2081167;28;20383;-61
2023/09/02 05:21:15;;;;;;;6.22;4.30;;;;;;;;;;2089897;28;20037;-63
2023/09/02 05:22:17;;;;;;;5.70;4.40;;;;;;;;;;2090009;28;20037;-61
2023/09/02 05:23:18;;;;;;;7.80;3.67;;;;;;;;;;2081626;28;20107;-62
2023/09/02 05:24:18;;;;;;;5.55;4.18;;;;;;;;;;2090020;28;20040;-63
2023/09/02 05:25:20;;;;;;;6.50;4.55;;;;;;;;;;2081582;28;20045;-61
2023/09/02 05:26:21;;;;;;;7.50;4.03;;;;;;;;;;2081430;28;20048;-61
2023/09/02 05:27:21;;;;;;;7.43;4.25;;;;;;;;;;2089894;28;20400;-62
2023/09/02 05:28:22;;;;;;;7.18;4.35;;;;;;;;;;2088908;28;20041;-62
2023/09/02 05:29:25;;;;;;;5.35;3.50;;;;;;;;;;2081714;28;20037;-63
2023/09/02 05:30:26;;;;;;;5.32;3.92;;;;;;;;;;2089846;28;20478;-62
2023/09/02 05:31:26;;;;;;;5.47;3.80;;;;;;;;;;2090507;28;20067;-61
2023/09/02 05:32:27;;;;;;;5.65;3.90;;;;;;;;;;2090469;28;20036;-64
2023/09/02 05:33:28;;;;;;;4.47;3.30;;;;;;;;;;2090360;28;20045;-62
2023/09/02 05:34:29;;;;;;;4.93;3.45;;;;;;;;;;2089702;28;20049;-64
2023/09/02 05:35:30;;;;;;;8.73;3.20;;;;;;;;;;2089504;28;20417;-63
2023/09/02 05:36:30;;;;;;;6.05;3.25;;;;;;;;;;2090405;28;20045;-64
2023/09/02 05:37:31;;;;;;;6.65;3.70;;;;;;;;;;2090546;28;20389;-64
2023/09/02 05:38:32;;;;;;;5.75;3.78;;;;;;;;;;2090246;28;20504;-63
2023/09/02 05:39:33;;;;;;;7.22;4.45;;;;;;;;;;2090420;28;20036;-64
2023/09/02 05:40:33;;;;;;;8.23;3.85;;;;;;;;;;2090516;28;20148;-64
2023/09/02 05:41:34;;;;;;;5.90;3.53;;;;;;;;;;2090676;28;20048;-64
2023/09/02 05:42:35;;;;;;;5.30;3.78;;;;;;;;;;2090361;28;20131;-64
2023/09/02 05:43:35;;;;;;;4.22;3.55;;;;;;;;;;2090083;28;20059;-64
2023/09/02 05:44:37;;;;;;;4.72;3.80;;;;;;;;;;2090349;28;20045;-64
2023/09/02 05:45:37;;;;;;;5.47;3.45;;;;;;;;;;2089976;28;20048;-62
2023/09/02 05:46:38;;;;;;;5.45;3.67;;;;;;;;;;2089225;28;20044;-64
2023/09/02 05:47:39;;;;;;;5.85;3.67;;;;;;;;;;2090010;28;20488;-64
2023/09/02 05:48:40;;;;;;;5.28;3.83;;;;;;;;;;2090764;28;20036;-64
2023/09/02 05:49:40;;;;;;;5.38;3.60;;;;;;;;;;2090487;28;20068;-64
2023/09/02 05:50:41;;;;;;;7.50;3.60;;;;;;;;;;2090288;28;20055;-62
2023/09/02 05:51:42;;;;;;;6.30;3.38;;;;;;;;;;2090518;28;20033;-63
2023/09/02 05:52:43;;;;;;;4.25;3.63;;;;;;;;;;2089917;28;20065;-63
2023/09/02 05:53:44;;;;;;;5.80;3.60;;;;;;;;;;2090308;28;20028;-64
2023/09/02 05:54:45;;;;;;;4.80;3.10;;;;;;;;;;2090028;28;20049;-64
2023/09/02 05:55:51;;;;;;;6.07;3.63;;;;;;;;;;2090346;28;20061;-64
2023/09/02 05:56:52;;;;;;;4.68;2.97;;;;;;;;;;2090016;28;20067;-63
2023/09/02 05:57:53;;;;;;;4.43;2.90;;;;;;;;;;2089926;28;20127;-64
2023/09/02 05:58:54;;;;;;;5.68;3.70;;;;;;;;;;2089309;28;20045;-64
2023/09/02 05:59:54;;;;;;;4.68;3.42;;;;;;;;;;2089808;28;20044;-63
2023/09/02 06:00:58;;;;;;;7.70;3.58;;;;;;;;;;2090158;28;20047;-64
2023/09/02 06:01:59;;;;;;;7.05;3.95;;;;;;;;;;2090272;28;20045;-64
2023/09/02 06:03:00;;;;;;;4.70;3.50;;;;;;;;;;2090322;28;20094;-64
2023/09/02 06:04:00;;;;;;;6.38;3.28;;;;;;;;;;2090362;28;20033;-64
2023/09/02 06:05:02;;;;;;;6.38;3.53;;;;;;;;;;2090384;28;20041;-64